Schneifelwetter: Wetterstation Hallschlag, 537 m . NN
Wetterdaten: Freitag, 04.11.2011
Datum Zeit Temp. A. Feuchte A. Luftdruck Regen Wind Richtung Richtung Sonnenschein Helligkeit T Regen Taupunkt Windchill
04.11.2011 00:00 10,2 C 79 % 1002 hPa 0,0 l/m 14,3 km/h (3 Bft) S-SO22.5 150 0 min 0 lux 0 min 6,7 C 5,7 C
04.11.2011 00:15 10,0 C 81 % 1001 hPa 0,0 l/m 9,1 km/h (2 Bft) SO22.5 135 0 min 0 lux 0 min 6,9 C 8,1 C
04.11.2011 00:30 10,0 C 81 % 1001 hPa 0,0 l/m 14,8 km/h (3 Bft) SO22.5 140 0 min 0 lux 0 min 6,9 C 5,2 C
04.11.2011 00:45 9,9 C 82 % 1000 hPa 0,0 l/m 11,1 km/h (2 Bft) O-SO45 105 0 min 0 lux 0 min 7,0 C 6,9 C
04.11.2011 01:00 9,7 C 82 % 1000 hPa 0,0 l/m 8,7 km/h (2 Bft) O45 80 0 min 0 lux 0 min 6,8 C 8,1 C
04.11.2011 01:15 9,5 C 84 % 1000 hPa 0,0 l/m 4,5 km/h (1 Bft) O 90 0 min 0 lux 0 min 6,9 C 9,5 C
04.11.2011 01:30 9,2 C 85 % 1000 hPa 0,0 l/m 10,0 km/h (2 Bft) NO22.5 45 0 min 0 lux 0 min 6,8 C 6,7 C
04.11.2011 01:45 9,0 C 86 % 1000 hPa 0,0 l/m 9,0 km/h (2 Bft) N-NO22.5 30 0 min 0 lux 0 min 6,8 C 7,1 C
04.11.2011 02:00 8,9 C 87 % 1001 hPa 0,0 l/m 12,3 km/h (3 Bft) S-SO22.5 160 0 min 0 lux 0 min 6,9 C 5,1 C
04.11.2011 02:15 8,9 C 87 % 1001 hPa 0,0 l/m 10,0 km/h (2 Bft) SO 135 0 min 0 lux 0 min 6,9 C 6,4 C
04.11.2011 02:30 8,9 C 87 % 1001 hPa 0,0 l/m 10,6 km/h (2 Bft) S-SO22.5 155 0 min 0 lux 0 min 6,9 C 6,0 C
04.11.2011 02:45 8,8 C 87 % 1001 hPa 0,0 l/m 11,6 km/h (2 Bft) S-SO22.5 150 0 min 0 lux 0 min 6,8 C 5,3 C
04.11.2011 03:00 8,7 C 88 % 1001 hPa 0,0 l/m 10,3 km/h (2 Bft) S-SO22.5 160 0 min 0 lux 0 min 6,8 C 6,0 C
04.11.2011 03:15 8,6 C 88 % 1001 hPa 0,0 l/m 10,1 km/h (2 Bft) S-SO 160 0 min 0 lux 0 min 6,7 C 6,0 C
04.11.2011 03:30 8,8 C 88 % 1001 hPa 0,0 l/m 11,0 km/h (2 Bft) S-SO22.5 165 0 min 0 lux 0 min 6,9 C 5,7 C
04.11.2011 03:45 8,7 C 88 % 1000 hPa 0,0 l/m 14,1 km/h (3 Bft) S-SO22.5 150 0 min 0 lux 0 min 6,8 C 4,0 C
04.11.2011 04:00 8,7 C 88 % 1000 hPa 0,0 l/m 8,9 km/h (2 Bft) S-SO45 160 0 min 0 lux 0 min 6,8 C 6,9 C
04.11.2011 04:15 8,6 C 89 % 1001 hPa 0,0 l/m 9,3 km/h (2 Bft) S67.5 190 0 min 0 lux 0 min 6,9 C 6,5 C
04.11.2011 04:30 8,6 C 89 % 1001 hPa 0,0 l/m 6,1 km/h (2 Bft) S-SO 160 0 min 0 lux 0 min 6,9 C 8,6 C
04.11.2011 04:45 8,4 C 89 % 1001 hPa 0,0 l/m 9,4 km/h (2 Bft) S-SO 160 0 min 0 lux 0 min 6,7 C 6,2 C
04.11.2011 05:00 8,2 C 89 % 1000 hPa 0,0 l/m 11,5 km/h (2 Bft) S-SO 150 0 min 0 lux 0 min 6,5 C 4,7 C
04.11.2011 05:15 8,0 C 89 % 1000 hPa 0,0 l/m 10,9 km/h (2 Bft) S-SO22.5 160 0 min 0 lux 0 min 6,3 C 4,8 C
04.11.2011 05:30 8,2 C 89 % 1000 hPa 0,3 l/m 17,9 km/h (3 Bft) S-SW45 200 0 min 0 lux 15 min 6,5 C 1,7 C
04.11.2011 05:45 8,3 C 89 % 1000 hPa 0,0 l/m 16,0 km/h (3 Bft) S22.5 175 0 min 0 lux 0 min 6,6 C 2,6 C
04.11.2011 06:00 8,7 C 89 % 1000 hPa 0,0 l/m 18,1 km/h (3 Bft) S22.5 170 0 min 0 lux 0 min 7,0 C 2,3 C
04.11.2011 06:15 9,1 C 89 % 1001 hPa 0,0 l/m 15,0 km/h (3 Bft) S-SO22.5 160 0 min 0 lux 0 min 7,4 C 4,0 C
04.11.2011 06:30 9,5 C 88 % 1001 hPa 0,0 l/m 21,3 km/h (4 Bft) S45 180 0 min 0 lux 0 min 7,6 C 2,2 C
04.11.2011 06:45 9,7 C 87 % 1001 hPa 0,0 l/m 19,8 km/h (3 Bft) S45 190 0 min 0 lux 0 min 7,6 C 3,0 C
04.11.2011 07:00 9,8 C 87 % 1001 hPa 0,0 l/m 23,1 km/h (4 Bft) S45 170 0 min 0 lux 0 min 7,7 C 2,1 C
04.11.2011 07:15 9,8 C 87 % 1001 hPa 0,3 l/m 22,1 km/h (4 Bft) S-SO22.5 165 0 min 52 lux 15 min 7,7 C 2,4 C
04.11.2011 07:30 9,6 C 87 % 1001 hPa 0,0 l/m 28,5 km/h (4 Bft) S22.5 170 0 min 578 lux 0 min 7,5 C 0,4 C
04.11.2011 07:45 9,5 C 88 % 1001 hPa 0,0 l/m 23,6 km/h (4 Bft) S22.5 175 0 min 1,00 klux 0 min 7,6 C 1,5 C
04.11.2011 08:00 9,4 C 89 % 1001 hPa 0,0 l/m 32,7 km/h (5 Bft) S22.5 170 0 min 2,72 klux 0 min 7,7 C -0,7 C
04.11.2011 08:16 9,5 C 89 % 1002 hPa 0,0 l/m 34,4 km/h (5 Bft) S-SO45 165 0 min 6,56 klux 0 min 7,8 C -0,9 C
04.11.2011 08:30 9,6 C 89 % 1002 hPa 0,0 l/m 31,8 km/h (5 Bft) S-SO22.5 160 0 min 16,5 klux 0 min 7,9 C -0,3 C
04.11.2011 08:45 9,7 C 88 % 1002 hPa 0,0 l/m 26,1 km/h (4 Bft) S45 170 0 min 21,4 klux 0 min 7,8 C 1,1 C
04.11.2011 09:00 10,0 C 87 % 1003 hPa 0,0 l/m 26,2 km/h (4 Bft) S-SW45 195 0 min 21,2 klux 0 min 7,9 C 1,5 C
04.11.2011 09:15 10,2 C 87 % 1003 hPa 0,0 l/m 24,3 km/h (4 Bft) S22.5 190 0 min 23,2 klux 0 min 8,1 C 2,3 C
04.11.2011 09:31 10,1 C 88 % 1003 hPa 0,0 l/m 19,1 km/h (3 Bft) S22.5 180 0 min 24,1 klux 0 min 8,2 C 3,7 C
04.11.2011 09:46 10,6 C 88 % 1003 hPa 0,0 l/m 18,2 km/h (3 Bft) SW67.5 220 0 min 34,0 klux 0 min 8,7 C 4,7 C
04.11.2011 10:00 11,2 C 86 % 1003 hPa 0,0 l/m 31,6 km/h (5 Bft) S-SW45 205 0 min 36,3 klux 0 min 8,9 C 2,0 C
04.11.2011 10:15 11,8 C 84 % 1003 hPa 0,0 l/m 21,3 km/h (4 Bft) S67.5 190 0 min 38,2 klux 0 min 9,2 C 5,2 C
04.11.2011 10:30 12,3 C 83 % 1003 hPa 0,0 l/m 33,5 km/h (5 Bft) SW45 225 15 min 40,4 klux 0 min 9,5 C 3,3 C
04.11.2011 10:45 12,8 C 82 % 1003 hPa 0,0 l/m 25,7 km/h (4 Bft) S-SW45 195 15 min 42,5 klux 0 min 9,8 C 5,5 C
04.11.2011 11:01 13,2 C 80 % 1003 hPa 0,0 l/m 22,8 km/h (4 Bft) S-SW67.5 200 16 min 43,4 klux 0 min 9,8 C 6,7 C
04.11.2011 11:16 13,6 C 78 % 1003 hPa 0,0 l/m 23,5 km/h (4 Bft) SW45 215 15 min 46,2 klux 0 min 9,8 C 7,1 C
04.11.2011 11:30 13,9 C 77 % 1003 hPa 0,0 l/m 28,8 km/h (4 Bft) S-SW45 200 14 min 46,5 klux 0 min 9,9 C 6,4 C
04.11.2011 11:45 14,2 C 76 % 1003 hPa 0,0 l/m 24,0 km/h (4 Bft) SW45 220 15 min 46,8 klux 0 min 10,0 C 7,7 C
04.11.2011 12:00 14,4 C 75 % 1003 hPa 0,0 l/m 18,7 km/h (3 Bft) S-SW45 205 15 min 47,6 klux 0 min 10,0 C 9,3 C
04.11.2011 12:15 14,7 C 74 % 1003 hPa 0,0 l/m 12,1 km/h (2 Bft) SW45 220 15 min 44,6 klux 0 min 10,1 C 11,9 C
04.11.2011 12:31 14,7 C 74 % 1003 hPa 0,0 l/m 24,8 km/h (4 Bft) SW45 215 16 min 49,0 klux 0 min 10,1 C 8,2 C
04.11.2011 12:46 15,0 C 73 % 1003 hPa 0,0 l/m 27,8 km/h (4 Bft) S67.5 190 15 min 39,6 klux 0 min 10,2 C 8,1 C
04.11.2011 13:00 14,7 C 73 % 1003 hPa 0,0 l/m 24,1 km/h (4 Bft) S-SW45 205 14 min 40,7 klux 0 min 9,9 C 8,4 C
04.11.2011 13:15 14,7 C 74 % 1003 hPa 0,0 l/m 27,1 km/h (4 Bft) W-SW45 240 0 min 35,9 klux 0 min 10,1 C 7,8 C
04.11.2011 13:30 15,0 C 73 % 1003 hPa 0,0 l/m 18,5 km/h (3 Bft) S22.5 175 0 min 25,8 klux 0 min 10,2 C 10,1 C
04.11.2011 13:45 14,8 C 73 % 1003 hPa 0,0 l/m 21,7 km/h (4 Bft) SW45 215 0 min 14,9 klux 0 min 10,0 C 9,1 C
04.11.2011 14:01 14,6 C 74 % 1003 hPa 0,0 l/m 15,7 km/h (3 Bft) S22.5 190 0 min 13,3 klux 0 min 10,0 C 10,5 C
04.11.2011 14:16 14,6 C 75 % 1003 hPa 0,0 l/m 14,4 km/h (3 Bft) S-SO22.5 160 0 min 14,1 klux 0 min 10,2 C 10,9 C
04.11.2011 14:30 14,4 C 76 % 1003 hPa 0,0 l/m 15,1 km/h (3 Bft) S22.5 175 0 min 10,8 klux 0 min 10,2 C 10,4 C
04.11.2011 14:45 14,1 C 77 % 1003 hPa 0,0 l/m 11,5 km/h (2 Bft) S22.5 170 0 min 9,1 klux 0 min 10,1 C 11,4 C
04.11.2011 15:00 13,7 C 78 % 1003 hPa 0,0 l/m 10,6 km/h (2 Bft) S-SO 165 0 min 6,18 klux 0 min 9,9 C 11,4 C
04.11.2011 15:15 13,5 C 79 % 1004 hPa 0,0 l/m 13,0 km/h (3 Bft) S22.5 180 0 min 4,87 klux 0 min 9,9 C 10,1 C
04.11.2011 15:31 13,3 C 80 % 1004 hPa 0,0 l/m 14,8 km/h (3 Bft) S-SO45 165 0 min 4,78 klux 0 min 9,9 C 9,2 C
04.11.2011 15:46 13,1 C 81 % 1004 hPa 0,0 l/m 25,9 km/h (4 Bft) S22.5 170 0 min 3,45 klux 0 min 9,9 C 5,8 C
04.11.2011 16:00 13,0 C 81 % 1004 hPa 0,0 l/m 23,9 km/h (4 Bft) S45 175 0 min 2,78 klux 0 min 9,8 C 6,2 C
04.11.2011 16:15 12,6 C 83 % 1004 hPa 0,0 l/m 21,8 km/h (4 Bft) S-SO22.5 160 0 min 3,06 klux 0 min 9,8 C 6,1 C
04.11.2011 16:30 12,4 C 83 % 1004 hPa 0,0 l/m 20,1 km/h (4 Bft) S22.5 180 0 min 3,04 klux 0 min 9,6 C 6,4 C
04.11.2011 16:45 12,3 C 84 % 1004 hPa 0,0 l/m 13,6 km/h (3 Bft) S-SO22.5 160 0 min 1,79 klux 0 min 9,7 C 8,5 C
04.11.2011 17:01 12,0 C 85 % 1004 hPa 0,0 l/m 9,8 km/h (2 Bft) S-SO 150 0 min 810 lux 0 min 9,6 C 9,9 C
04.11.2011 17:16 11,8 C 85 % 1004 hPa 0,0 l/m 17,0 km/h (3 Bft) S22.5 175 0 min 271 lux 0 min 9,4 C 6,6 C
04.11.2011 17:30 11,6 C 86 % 1004 hPa 0,0 l/m 12,5 km/h (3 Bft) S22.5 175 0 min 62 lux 0 min 9,3 C 8,1 C
04.11.2011 17:45 11,4 C 86 % 1004 hPa 0,0 l/m 8,0 km/h (2 Bft) S-SO45 150 0 min 4 lux 0 min 9,1 C 10,3 C
04.11.2011 18:00 11,3 C 87 % 1004 hPa 0,0 l/m 12,1 km/h (2 Bft) S22.5 180 0 min 0 lux 0 min 9,2 C 8,0 C
04.11.2011 18:15 11,2 C 87 % 1004 hPa 0,0 l/m 7,7 km/h (2 Bft) S-SO 155 0 min 0 lux 0 min 9,1 C 10,3 C
04.11.2011 18:31 10,9 C 88 % 1004 hPa 0,0 l/m 8,9 km/h (2 Bft) S-SO22.5 160 0 min 0 lux 0 min 9,0 C 9,2 C
04.11.2011 18:46 10,8 C 88 % 1004 hPa 0,0 l/m 9,8 km/h (2 Bft) SO22.5 145 0 min 0 lux 0 min 8,9 C 8,6 C
04.11.2011 19:00 10,8 C 89 % 1005 hPa 0,0 l/m 13,5 km/h (3 Bft) S22.5 175 0 min 0 lux 0 min 9,1 C 6,7 C
04.11.2011 19:15 10,9 C 90 % 1005 hPa 0,0 l/m 10,8 km/h (2 Bft) S-SO 150 0 min 0 lux 0 min 9,3 C 8,2 C
04.11.2011 19:30 10,8 C 90 % 1005 hPa 0,0 l/m 12,4 km/h (3 Bft) S22.5 175 0 min 0 lux 0 min 9,2 C 7,2 C
04.11.2011 19:45 10,7 C 90 % 1005 hPa 0,0 l/m 11,5 km/h (2 Bft) S-SO22.5 160 0 min 0 lux 0 min 9,1 C 7,6 C
04.11.2011 20:01 10,3 C 91 % 1005 hPa 0,0 l/m 6,8 km/h (2 Bft) S-SO22.5 150 0 min 0 lux 0 min 8,9 C 10,0 C
04.11.2011 20:16 10,2 C 91 % 1005 hPa 0,0 l/m 5,0 km/h (1 Bft) S-SO 150 0 min 0 lux 0 min 8,8 C 10,2 C
04.11.2011 20:30 10,3 C 92 % 1005 hPa 0,0 l/m 8,4 km/h (2 Bft) SO22.5 140 0 min 0 lux 0 min 9,1 C 8,9 C
04.11.2011 20:45 10,3 C 92 % 1005 hPa 0,0 l/m 9,7 km/h (2 Bft) S-SO 160 0 min 0 lux 0 min 9,1 C 8,1 C
04.11.2011 21:00 10,1 C 92 % 1005 hPa 0,0 l/m 0,0 km/h (0 Bft) S-SO 165 0 min 0 lux 0 min 8,9 C 10,1 C
04.11.2011 21:15 10,0 C 92 % 1005 hPa 0,0 l/m 7,1 km/h (2 Bft) O-NO 65 0 min 0 lux 0 min 8,8 C 9,5 C
04.11.2011 21:31 9,9 C 92 % 1005 hPa 0,0 l/m 5,2 km/h (1 Bft) O 80 0 min 0 lux 0 min 8,7 C 9,9 C
04.11.2011 21:45 9,9 C 92 % 1005 hPa 0,0 l/m 7,8 km/h (2 Bft) SO22.5 135 0 min 0 lux 0 min 8,7 C 8,9 C
04.11.2011 22:00 9,7 C 91 % 1005 hPa 0,0 l/m 8,9 km/h (2 Bft) SO 135 0 min 0 lux 0 min 8,3 C 7,9 C
04.11.2011 22:15 9,3 C 91 % 1005 hPa 0,0 l/m 3,4 km/h (1 Bft) SO 130 0 min 0 lux 0 min 7,9 C 9,3 C
04.11.2011 22:30 9,1 C 92 % 1005 hPa 0,0 l/m 3,3 km/h (1 Bft) SO 130 0 min 0 lux 0 min 7,9 C 9,1 C
04.11.2011 22:45 9,0 C 92 % 1005 hPa 0,0 l/m 0,0 km/h (0 Bft) SO 130 0 min 0 lux 0 min 7,8 C 9,0 C
04.11.2011 23:01 8,9 C 92 % 1005 hPa 0,0 l/m 8,0 km/h (2 Bft) O-NO45 60 0 min 0 lux 0 min 7,7 C 7,7 C
04.11.2011 23:15 8,9 C 93 % 1004 hPa 0,0 l/m 8,5 km/h (2 Bft) N-NO 25 0 min 0 lux 0 min 7,8 C 7,3 C
04.11.2011 23:30 9,2 C 93 % 1004 hPa 0,0 l/m 10,0 km/h (2 Bft) N-NO22.5 25 0 min 0 lux 0 min 8,1 C 6,7 C
04.11.2011 23:45 9,3 C 92 % 1004 hPa 0,0 l/m 0,0 km/h (0 Bft) NO 40 0 min 0 lux 0 min 8,1 C 9,3 C
04.11.2011 23:54 9,4 C 91 % 1004 hPa 0,0 l/m 4,8 km/h (1 Bft) NO 40 0 min 0 lux 0 min 8,0 C 9,4 C
_ Min-Zeit 05:15 12:46 00:45 - 21:00 - - - - - 05:15 08:16
Minimum _ 8,0 C 73 % 1000 hPa - 0,0 km/h (0 Bft) - - - - - 6,3 C -0,9 C
_ Max-Zeit 12:46 23:15 19:00 05:30 08:16 - - 11:01 12:31 05:30 14:30 12:15
Maximum _ 15,0 C 93 % 1005 hPa 0,3 l/m 34,4 km/h
S-SO (5 Bft)
- - 16 min 49,0 klux 15 min 10,2 C 11,9 C
Durchschnitt _ 10,8 C 85 % 1003 hPa #0,6 l/m 15,1 km/h (3 Bft) S-SO - #2:45 h 8,98 klux #30 min. 8,4 C 6,7 C